首页
METAR-TAF:

METAR-TAF

机场 :

Daniel Field Airport

奥古斯塔, 喬治亞, 美国

纬度: 33-28-01N, 经度: 082-02-19W, 海拔: 128米

当前天气观测

该预报发布于18分钟前的01:53 UTC
风速7节,风向西南,有时为15节阵风
温度 28°C
湿度 74%
气压 1016 hPa
能見度: 16.1公里
天空无云

METAR: KDNL 220153Z AUTO 22007G15KT 10SM CLR 28/23 A3001 RMK AO2 SLP156 T02830233

时间: 22:11 (02:11 UTC)

预报

该预报发布于2小时和36分钟前的23:35 UTC
预报有效从22日的 00点(UTC)到 22日的 24点(UTC)
风速8节,风向南转西南
能見度: 10公里
散云层高于5000英尺
附近有阵雨
短暂存在
从 22日的 01点(UTC)到 22日的 04点(UTC)
多云层高于4000英尺, 积雨云.
雷暴, 小雨
从 22日的 0400点(UTC)
风速6节,风向西南
能見度: 10公里
散云层高于4500英尺
多云层高于10000英尺
从 22日的 0800点(UTC)
风速5节,风向西南
能見度: 10公里
散云层高于1500英尺
从 22日的 1400点(UTC)
风速8节,风向西
能見度: 10公里
多云层高于4000英尺

TAF: KDNL 212335Z 2200/2224 20008KT P6SM VCSH SCT050 TEMPO 2201/2204 -TSRA BKN040CB FM220400 22006KT P6SM SCT045 BKN100 FM220800 23005KT P6SM SCT015 FM221400 27008KT P6SM BKN040

超过4000个机场的气象观测和天气预报(METAR&TAF报告)。

可查询的气象台以黄色和红色小点在地图上表示。

将鼠标移到小点上方,可查看气象台名称。

然后点击查看天气观测和预报。

如需切换地图:点击带黑十字的绿色按钮放大地图;点击带横线的绿色按钮缩小地图;或者点击绿色箭头查看邻近地区的地图。


METAR-TAF: